sensor_id;sensor_type;location;lat;lon;timestamp;P1;durP1;ratioP1;P2;durP2;ratioP2
32786;SDS011;19139;49.372;8.580;2023-03-17T00:01:39;2.30;;;1.20;;
32786;SDS011;19139;49.372;8.580;2023-03-17T00:04:09;1.93;;;1.10;;
32786;SDS011;19139;49.372;8.580;2023-03-17T00:06:37;2.13;;;1.37;;
32786;SDS011;19139;49.372;8.580;2023-03-17T00:09:08;1.10;;;0.90;;
32786;SDS011;19139;49.372;8.580;2023-03-17T00:11:40;1.30;;;0.90;;
32786;SDS011;19139;49.372;8.580;2023-03-17T00:14:07;1.57;;;1.00;;
32786;SDS011;19139;49.372;8.580;2023-03-17T00:16:37;1.20;;;1.10;;
32786;SDS011;19139;49.372;8.580;2023-03-17T00:19:13;2.07;;;1.17;;
32786;SDS011;19139;49.372;8.580;2023-03-17T00:21:42;2.17;;;0.90;;
32786;SDS011;19139;49.372;8.580;2023-03-17T00:24:11;1.77;;;0.93;;
32786;SDS011;19139;49.372;8.580;2023-03-17T00:26:40;1.67;;;1.40;;
32786;SDS011;19139;49.372;8.580;2023-03-17T00:29:07;1.50;;;0.80;;
32786;SDS011;19139;49.372;8.580;2023-03-17T00:31:34;1.73;;;1.20;;
32786;SDS011;19139;49.372;8.580;2023-03-17T00:34:02;1.53;;;1.07;;
32786;SDS011;19139;49.372;8.580;2023-03-17T00:36:29;1.30;;;0.93;;
32786;SDS011;19139;49.372;8.580;2023-03-17T00:38:58;2.37;;;1.17;;
32786;SDS011;19139;49.372;8.580;2023-03-17T00:41:25;2.03;;;1.00;;
32786;SDS011;19139;49.372;8.580;2023-03-17T00:43:52;2.80;;;1.30;;
32786;SDS011;19139;49.372;8.580;2023-03-17T00:49:01;1.50;;;1.30;;
32786;SDS011;19139;49.372;8.580;2023-03-17T00:51:57;1.63;;;1.00;;
32786;SDS011;19139;49.372;8.580;2023-03-17T00:54:25;1.20;;;0.90;;
32786;SDS011;19139;49.372;8.580;2023-03-17T00:56:51;1.83;;;1.20;;
32786;SDS011;19139;49.372;8.580;2023-03-17T00:59:34;1.80;;;1.20;;
32786;SDS011;19139;49.372;8.580;2023-03-17T01:02:05;2.13;;;1.20;;
32786;SDS011;19139;49.372;8.580;2023-03-17T01:04:32;2.73;;;0.90;;
32786;SDS011;19139;49.372;8.580;2023-03-17T01:06:58;2.37;;;1.40;;
32786;SDS011;19139;49.372;8.580;2023-03-17T01:09:26;1.73;;;1.20;;
32786;SDS011;19139;49.372;8.580;2023-03-17T01:11:53;1.23;;;1.10;;
32786;SDS011;19139;49.372;8.580;2023-03-17T01:14:21;1.43;;;1.23;;
32786;SDS011;19139;49.372;8.580;2023-03-17T01:16:48;1.60;;;1.10;;
32786;SDS011;19139;49.372;8.580;2023-03-17T01:19:15;2.30;;;1.07;;
32786;SDS011;19139;49.372;8.580;2023-03-17T01:21:42;1.50;;;0.90;;
32786;SDS011;19139;49.372;8.580;2023-03-17T01:24:08;1.50;;;0.90;;
32786;SDS011;19139;49.372;8.580;2023-03-17T01:26:35;2.17;;;0.90;;
32786;SDS011;19139;49.372;8.580;2023-03-17T01:29:03;1.57;;;1.00;;
32786;SDS011;19139;49.372;8.580;2023-03-17T01:31:31;2.33;;;1.00;;
32786;SDS011;19139;49.372;8.580;2023-03-17T01:33:58;2.57;;;1.10;;
32786;SDS011;19139;49.372;8.580;2023-03-17T01:36:24;1.53;;;0.80;;
32786;SDS011;19139;49.372;8.580;2023-03-17T01:38:51;1.77;;;1.30;;
32786;SDS011;19139;49.372;8.580;2023-03-17T01:41:18;2.27;;;1.13;;
32786;SDS011;19139;49.372;8.580;2023-03-17T01:43:45;2.80;;;0.83;;
32786;SDS011;19139;49.372;8.580;2023-03-17T01:46:26;1.10;;;1.00;;
32786;SDS011;19139;49.372;8.580;2023-03-17T01:51:46;1.17;;;0.93;;
32786;SDS011;19139;49.372;8.580;2023-03-17T01:54:33;1.50;;;1.00;;
32786;SDS011;19139;49.372;8.580;2023-03-17T01:57:19;2.93;;;1.37;;
32786;SDS011;19139;49.372;8.580;2023-03-17T01:59:55;1.00;;;0.80;;
32786;SDS011;19139;49.372;8.580;2023-03-17T02:02:31;1.57;;;1.30;;
32786;SDS011;19139;49.372;8.580;2023-03-17T02:05:02;2.23;;;1.27;;
32786;SDS011;19139;49.372;8.580;2023-03-17T02:07:30;1.20;;;0.73;;
32786;SDS011;19139;49.372;8.580;2023-03-17T02:09:58;1.63;;;1.23;;
32786;SDS011;19139;49.372;8.580;2023-03-17T02:12:25;1.47;;;0.93;;
32786;SDS011;19139;49.372;8.580;2023-03-17T02:14:54;1.83;;;1.13;;
32786;SDS011;19139;49.372;8.580;2023-03-17T02:17:21;2.83;;;1.20;;
32786;SDS011;19139;49.372;8.580;2023-03-17T02:19:50;0.90;;;0.80;;
32786;SDS011;19139;49.372;8.580;2023-03-17T02:22:18;1.93;;;1.07;;
32786;SDS011;19139;49.372;8.580;2023-03-17T02:24:48;1.87;;;1.00;;
32786;SDS011;19139;49.372;8.580;2023-03-17T02:27:18;1.50;;;1.07;;
32786;SDS011;19139;49.372;8.580;2023-03-17T02:30:00;1.23;;;1.03;;
32786;SDS011;19139;49.372;8.580;2023-03-17T02:32:29;1.17;;;0.93;;
32786;SDS011;19139;49.372;8.580;2023-03-17T02:34:59;1.37;;;0.80;;
32786;SDS011;19139;49.372;8.580;2023-03-17T02:37:26;1.60;;;1.20;;
32786;SDS011;19139;49.372;8.580;2023-03-17T02:39:53;1.40;;;0.90;;
32786;SDS011;19139;49.372;8.580;2023-03-17T02:42:20;1.00;;;0.80;;
32786;SDS011;19139;49.372;8.580;2023-03-17T02:44:47;2.40;;;1.00;;
32786;SDS011;19139;49.372;8.580;2023-03-17T02:47:13;1.43;;;0.90;;
32786;SDS011;19139;49.372;8.580;2023-03-17T02:49:40;1.50;;;1.00;;
32786;SDS011;19139;49.372;8.580;2023-03-17T02:52:08;2.03;;;1.50;;
32786;SDS011;19139;49.372;8.580;2023-03-17T02:54:35;1.20;;;0.90;;
32786;SDS011;19139;49.372;8.580;2023-03-17T02:57:01;1.20;;;1.00;;
32786;SDS011;19139;49.372;8.580;2023-03-17T02:59:28;1.53;;;0.90;;
32786;SDS011;19139;49.372;8.580;2023-03-17T03:01:55;2.00;;;1.20;;
32786;SDS011;19139;49.372;8.580;2023-03-17T03:04:22;1.00;;;0.70;;
32786;SDS011;19139;49.372;8.580;2023-03-17T03:06:49;1.57;;;1.30;;
32786;SDS011;19139;49.372;8.580;2023-03-17T03:09:16;1.67;;;1.03;;
32786;SDS011;19139;49.372;8.580;2023-03-17T03:11:43;1.93;;;0.90;;
32786;SDS011;19139;49.372;8.580;2023-03-17T03:14:09;1.77;;;1.00;;
32786;SDS011;19139;49.372;8.580;2023-03-17T03:16:36;1.70;;;0.97;;
32786;SDS011;19139;49.372;8.580;2023-03-17T03:19:03;2.00;;;1.20;;
32786;SDS011;19139;49.372;8.580;2023-03-17T03:21:30;1.37;;;0.83;;
32786;SDS011;19139;49.372;8.580;2023-03-17T03:23:57;1.07;;;0.97;;
32786;SDS011;19139;49.372;8.580;2023-03-17T03:26:24;1.47;;;0.90;;
32786;SDS011;19139;49.372;8.580;2023-03-17T03:28:50;1.90;;;1.30;;
32786;SDS011;19139;49.372;8.580;2023-03-17T03:31:17;1.50;;;0.97;;
32786;SDS011;19139;49.372;8.580;2023-03-17T03:33:44;1.30;;;1.00;;
32786;SDS011;19139;49.372;8.580;2023-03-17T03:36:10;1.23;;;1.13;;
32786;SDS011;19139;49.372;8.580;2023-03-17T03:38:38;1.37;;;1.27;;
32786;SDS011;19139;49.372;8.580;2023-03-17T03:41:05;1.63;;;1.10;;
32786;SDS011;19139;49.372;8.580;2023-03-17T03:43:32;1.90;;;1.00;;
32786;SDS011;19139;49.372;8.580;2023-03-17T03:45:59;1.70;;;0.90;;
32786;SDS011;19139;49.372;8.580;2023-03-17T03:48:27;2.33;;;1.10;;
32786;SDS011;19139;49.372;8.580;2023-03-17T03:50:57;1.17;;;0.80;;
32786;SDS011;19139;49.372;8.580;2023-03-17T03:53:25;1.33;;;0.80;;
32786;SDS011;19139;49.372;8.580;2023-03-17T03:55:53;1.70;;;1.03;;
32786;SDS011;19139;49.372;8.580;2023-03-17T03:58:21;1.70;;;0.60;;
32786;SDS011;19139;49.372;8.580;2023-03-17T04:00:48;1.77;;;1.17;;
32786;SDS011;19139;49.372;8.580;2023-03-17T04:03:14;2.27;;;0.90;;
32786;SDS011;19139;49.372;8.580;2023-03-17T04:05:41;1.23;;;0.93;;
32786;SDS011;19139;49.372;8.580;2023-03-17T04:08:08;2.10;;;1.40;;
32786;SDS011;19139;49.372;8.580;2023-03-17T04:10:36;0.83;;;0.63;;
32786;SDS011;19139;49.372;8.580;2023-03-17T04:13:02;1.20;;;0.90;;
32786;SDS011;19139;49.372;8.580;2023-03-17T04:15:29;1.77;;;0.93;;
32786;SDS011;19139;49.372;8.580;2023-03-17T04:17:56;1.20;;;1.10;;
32786;SDS011;19139;49.372;8.580;2023-03-17T04:20:22;1.10;;;0.93;;
32786;SDS011;19139;49.372;8.580;2023-03-17T04:22:49;1.00;;;0.90;;
32786;SDS011;19139;49.372;8.580;2023-03-17T04:25:16;1.00;;;0.90;;
32786;SDS011;19139;49.372;8.580;2023-03-17T04:27:43;2.17;;;1.10;;
32786;SDS011;19139;49.372;8.580;2023-03-17T04:30:11;1.40;;;1.00;;
32786;SDS011;19139;49.372;8.580;2023-03-17T04:32:41;1.93;;;0.87;;
32786;SDS011;19139;49.372;8.580;2023-03-17T04:35:13;1.60;;;1.00;;
32786;SDS011;19139;49.372;8.580;2023-03-17T04:37:41;1.40;;;0.93;;
32786;SDS011;19139;49.372;8.580;2023-03-17T04:40:09;1.17;;;0.97;;
32786;SDS011;19139;49.372;8.580;2023-03-17T04:42:37;1.33;;;1.00;;
32786;SDS011;19139;49.372;8.580;2023-03-17T04:45:05;1.43;;;0.80;;
32786;SDS011;19139;49.372;8.580;2023-03-17T04:47:32;1.03;;;0.90;;
32786;SDS011;19139;49.372;8.580;2023-03-17T04:49:59;1.17;;;0.87;;
32786;SDS011;19139;49.372;8.580;2023-03-17T04:52:26;1.50;;;1.10;;
32786;SDS011;19139;49.372;8.580;2023-03-17T04:54:53;1.17;;;0.90;;
32786;SDS011;19139;49.372;8.580;2023-03-17T04:57:20;1.17;;;0.87;;
32786;SDS011;19139;49.372;8.580;2023-03-17T04:59:47;1.00;;;0.77;;
32786;SDS011;19139;49.372;8.580;2023-03-17T05:02:13;1.43;;;0.97;;
32786;SDS011;19139;49.372;8.580;2023-03-17T05:04:40;0.93;;;0.70;;
32786;SDS011;19139;49.372;8.580;2023-03-17T05:07:07;1.03;;;0.83;;
32786;SDS011;19139;49.372;8.580;2023-03-17T05:09:34;1.13;;;0.90;;
32786;SDS011;19139;49.372;8.580;2023-03-17T05:12:01;2.30;;;1.07;;
32786;SDS011;19139;49.372;8.580;2023-03-17T05:14:27;1.63;;;1.30;;
32786;SDS011;19139;49.372;8.580;2023-03-17T05:16:54;1.20;;;1.10;;
32786;SDS011;19139;49.372;8.580;2023-03-17T05:19:21;1.43;;;0.93;;
32786;SDS011;19139;49.372;8.580;2023-03-17T05:21:47;1.13;;;0.93;;
32786;SDS011;19139;49.372;8.580;2023-03-17T05:24:14;1.10;;;0.77;;
32786;SDS011;19139;49.372;8.580;2023-03-17T05:26:41;1.40;;;1.00;;
32786;SDS011;19139;49.372;8.580;2023-03-17T05:29:07;1.47;;;1.00;;
32786;SDS011;19139;49.372;8.580;2023-03-17T05:31:34;1.00;;;0.90;;
32786;SDS011;19139;49.372;8.580;2023-03-17T05:34:01;1.00;;;0.90;;
32786;SDS011;19139;49.372;8.580;2023-03-17T05:36:29;0.80;;;0.73;;
32786;SDS011;19139;49.372;8.580;2023-03-17T05:38:55;1.63;;;0.90;;
32786;SDS011;19139;49.372;8.580;2023-03-17T05:41:22;1.17;;;0.70;;
32786;SDS011;19139;49.372;8.580;2023-03-17T05:43:49;2.40;;;1.73;;
32786;SDS011;19139;49.372;8.580;2023-03-17T05:46:16;1.10;;;0.80;;
32786;SDS011;19139;49.372;8.580;2023-03-17T05:48:45;0.73;;;0.70;;
32786;SDS011;19139;49.372;8.580;2023-03-17T05:51:12;0.80;;;0.77;;
32786;SDS011;19139;49.372;8.580;2023-03-17T05:53:38;1.40;;;0.90;;
32786;SDS011;19139;49.372;8.580;2023-03-17T05:56:06;1.50;;;1.17;;
32786;SDS011;19139;49.372;8.580;2023-03-17T05:58:33;1.00;;;0.93;;
32786;SDS011;19139;49.372;8.580;2023-03-17T06:00:59;1.60;;;0.80;;
32786;SDS011;19139;49.372;8.580;2023-03-17T06:03:26;1.10;;;0.87;;
32786;SDS011;19139;49.372;8.580;2023-03-17T06:05:53;1.07;;;0.97;;
32786;SDS011;19139;49.372;8.580;2023-03-17T06:08:20;0.90;;;0.60;;
32786;SDS011;19139;49.372;8.580;2023-03-17T06:10:46;0.80;;;0.80;;
32786;SDS011;19139;49.372;8.580;2023-03-17T06:13:13;1.47;;;0.97;;
32786;SDS011;19139;49.372;8.580;2023-03-17T06:15:40;0.80;;;0.80;;
32786;SDS011;19139;49.372;8.580;2023-03-17T06:18:08;1.40;;;0.90;;
32786;SDS011;19139;49.372;8.580;2023-03-17T06:20:34;1.93;;;0.90;;
32786;SDS011;19139;49.372;8.580;2023-03-17T06:23:01;1.20;;;0.90;;
32786;SDS011;19139;49.372;8.580;2023-03-17T06:25:31;2.63;;;1.43;;
32786;SDS011;19139;49.372;8.580;2023-03-17T06:27:59;3.43;;;1.30;;
32786;SDS011;19139;49.372;8.580;2023-03-17T06:30:29;4.97;;;1.40;;
32786;SDS011;19139;49.372;8.580;2023-03-17T06:32:57;2.00;;;0.93;;
32786;SDS011;19139;49.372;8.580;2023-03-17T06:35:25;2.07;;;1.27;;
32786;SDS011;19139;49.372;8.580;2023-03-17T06:37:52;2.30;;;1.13;;
32786;SDS011;19139;49.372;8.580;2023-03-17T06:40:19;2.00;;;1.03;;
32786;SDS011;19139;49.372;8.580;2023-03-17T06:42:46;1.50;;;0.80;;
32786;SDS011;19139;49.372;8.580;2023-03-17T06:45:13;2.43;;;1.23;;
32786;SDS011;19139;49.372;8.580;2023-03-17T06:47:39;2.83;;;1.13;;
32786;SDS011;19139;49.372;8.580;2023-03-17T06:50:07;3.60;;;1.10;;
32786;SDS011;19139;49.372;8.580;2023-03-17T06:52:35;2.03;;;1.20;;
32786;SDS011;19139;49.372;8.580;2023-03-17T06:55:03;5.23;;;1.63;;
32786;SDS011;19139;49.372;8.580;2023-03-17T06:57:31;4.20;;;1.57;;
32786;SDS011;19139;49.372;8.580;2023-03-17T06:59:58;2.73;;;0.80;;
32786;SDS011;19139;49.372;8.580;2023-03-17T07:02:24;1.53;;;0.90;;
32786;SDS011;19139;49.372;8.580;2023-03-17T07:04:51;1.63;;;1.03;;
32786;SDS011;19139;49.372;8.580;2023-03-17T07:07:18;1.93;;;1.00;;
32786;SDS011;19139;49.372;8.580;2023-03-17T07:09:46;3.33;;;1.03;;
32786;SDS011;19139;49.372;8.580;2023-03-17T07:12:13;4.10;;;1.43;;
32786;SDS011;19139;49.372;8.580;2023-03-17T07:14:39;1.63;;;1.23;;
32786;SDS011;19139;49.372;8.580;2023-03-17T07:17:09;2.00;;;0.90;;
32786;SDS011;19139;49.372;8.580;2023-03-17T07:19:38;2.20;;;1.30;;
32786;SDS011;19139;49.372;8.580;2023-03-17T07:22:06;1.83;;;0.87;;
32786;SDS011;19139;49.372;8.580;2023-03-17T07:24:33;1.93;;;1.20;;
32786;SDS011;19139;49.372;8.580;2023-03-17T07:26:59;1.97;;;1.03;;
32786;SDS011;19139;49.372;8.580;2023-03-17T07:29:26;2.23;;;1.30;;
32786;SDS011;19139;49.372;8.580;2023-03-17T07:31:54;2.60;;;0.90;;
32786;SDS011;19139;49.372;8.580;2023-03-17T07:34:20;1.50;;;1.10;;
32786;SDS011;19139;49.372;8.580;2023-03-17T07:36:48;3.00;;;1.37;;
32786;SDS011;19139;49.372;8.580;2023-03-17T07:39:15;1.87;;;1.20;;
32786;SDS011;19139;49.372;8.580;2023-03-17T07:41:42;2.27;;;1.30;;
32786;SDS011;19139;49.372;8.580;2023-03-17T07:44:09;3.13;;;1.20;;
32786;SDS011;19139;49.372;8.580;2023-03-17T07:46:36;3.50;;;1.07;;
32786;SDS011;19139;49.372;8.580;2023-03-17T07:49:03;2.17;;;1.20;;
32786;SDS011;19139;49.372;8.580;2023-03-17T07:51:30;2.50;;;1.53;;
32786;SDS011;19139;49.372;8.580;2023-03-17T07:53:56;2.83;;;1.10;;
32786;SDS011;19139;49.372;8.580;2023-03-17T07:56:29;1.80;;;1.23;;
32786;SDS011;19139;49.372;8.580;2023-03-17T07:58:56;2.23;;;1.27;;
32786;SDS011;19139;49.372;8.580;2023-03-17T08:01:27;1.80;;;1.20;;
32786;SDS011;19139;49.372;8.580;2023-03-17T08:03:54;3.47;;;1.30;;
32786;SDS011;19139;49.372;8.580;2023-03-17T08:06:21;2.17;;;1.33;;
32786;SDS011;19139;49.372;8.580;2023-03-17T08:08:50;1.73;;;1.33;;
32786;SDS011;19139;49.372;8.580;2023-03-17T08:11:17;2.33;;;1.10;;
32786;SDS011;19139;49.372;8.580;2023-03-17T08:13:45;3.30;;;1.37;;
32786;SDS011;19139;49.372;8.580;2023-03-17T08:16:12;3.07;;;1.20;;
32786;SDS011;19139;49.372;8.580;2023-03-17T08:18:39;2.37;;;1.27;;
32786;SDS011;19139;49.372;8.580;2023-03-17T08:21:06;2.70;;;1.17;;
32786;SDS011;19139;49.372;8.580;2023-03-17T08:23:32;1.40;;;1.20;;
32786;SDS011;19139;49.372;8.580;2023-03-17T08:26:00;2.87;;;1.10;;
32786;SDS011;19139;49.372;8.580;2023-03-17T08:28:28;2.57;;;1.40;;
32786;SDS011;19139;49.372;8.580;2023-03-17T08:31:04;2.43;;;1.17;;
32786;SDS011;19139;49.372;8.580;2023-03-17T08:33:38;1.97;;;1.30;;
32786;SDS011;19139;49.372;8.580;2023-03-17T08:36:06;1.57;;;1.00;;
32786;SDS011;19139;49.372;8.580;2023-03-17T08:38:35;3.67;;;1.13;;
32786;SDS011;19139;49.372;8.580;2023-03-17T08:41:03;1.60;;;1.07;;
32786;SDS011;19139;49.372;8.580;2023-03-17T08:43:31;2.13;;;1.50;;
32786;SDS011;19139;49.372;8.580;2023-03-17T08:46:01;3.43;;;1.20;;
32786;SDS011;19139;49.372;8.580;2023-03-17T08:48:37;1.97;;;1.30;;
32786;SDS011;19139;49.372;8.580;2023-03-17T08:51:04;2.17;;;1.00;;
32786;SDS011;19139;49.372;8.580;2023-03-17T08:53:32;1.43;;;1.13;;
32786;SDS011;19139;49.372;8.580;2023-03-17T08:56:00;2.90;;;1.60;;
32786;SDS011;19139;49.372;8.580;2023-03-17T08:58:27;3.00;;;0.93;;
32786;SDS011;19139;49.372;8.580;2023-03-17T09:00:57;2.30;;;1.30;;
32786;SDS011;19139;49.372;8.580;2023-03-17T09:03:25;3.13;;;1.20;;
32786;SDS011;19139;49.372;8.580;2023-03-17T09:05:52;1.90;;;0.97;;
32786;SDS011;19139;49.372;8.580;2023-03-17T09:08:20;3.17;;;1.60;;
32786;SDS011;19139;49.372;8.580;2023-03-17T09:10:47;1.20;;;0.80;;
32786;SDS011;19139;49.372;8.580;2023-03-17T09:13:14;2.13;;;1.30;;
32786;SDS011;19139;49.372;8.580;2023-03-17T09:15:41;1.93;;;1.10;;
32786;SDS011;19139;49.372;8.580;2023-03-17T09:18:08;1.47;;;1.03;;
32786;SDS011;19139;49.372;8.580;2023-03-17T09:20:35;1.80;;;1.07;;
32786;SDS011;19139;49.372;8.580;2023-03-17T09:23:05;2.87;;;1.40;;
32786;SDS011;19139;49.372;8.580;2023-03-17T09:25:34;2.97;;;1.20;;
32786;SDS011;19139;49.372;8.580;2023-03-17T09:28:03;4.43;;;1.30;;
32786;SDS011;19139;49.372;8.580;2023-03-17T09:30:32;3.03;;;0.90;;
32786;SDS011;19139;49.372;8.580;2023-03-17T09:32:59;3.00;;;1.30;;
32786;SDS011;19139;49.372;8.580;2023-03-17T09:35:26;2.83;;;1.10;;
32786;SDS011;19139;49.372;8.580;2023-03-17T09:37:53;3.47;;;1.60;;
32786;SDS011;19139;49.372;8.580;2023-03-17T09:40:21;3.70;;;1.10;;
32786;SDS011;19139;49.372;8.580;2023-03-17T09:43:00;1.93;;;1.00;;
32786;SDS011;19139;49.372;8.580;2023-03-17T09:45:47;3.20;;;1.60;;
32786;SDS011;19139;49.372;8.580;2023-03-17T09:48:16;3.30;;;1.30;;
32786;SDS011;19139;49.372;8.580;2023-03-17T09:51:10;4.43;;;1.50;;
32786;SDS011;19139;49.372;8.580;2023-03-17T09:53:50;4.77;;;1.60;;
32786;SDS011;19139;49.372;8.580;2023-03-17T09:56:25;2.20;;;1.23;;
32786;SDS011;19139;49.372;8.580;2023-03-17T09:58:58;2.63;;;1.23;;
32786;SDS011;19139;49.372;8.580;2023-03-17T10:01:45;3.30;;;1.37;;
32786;SDS011;19139;49.372;8.580;2023-03-17T10:04:12;4.47;;;1.53;;
32786;SDS011;19139;49.372;8.580;2023-03-17T10:06:44;5.03;;;1.70;;
32786;SDS011;19139;49.372;8.580;2023-03-17T10:09:14;3.63;;;1.47;;
32786;SDS011;19139;49.372;8.580;2023-03-17T10:12:07;5.07;;;1.70;;
32786;SDS011;19139;49.372;8.580;2023-03-17T10:17:35;6.97;;;1.83;;
32786;SDS011;19139;49.372;8.580;2023-03-17T10:20:15;4.10;;;1.30;;
32786;SDS011;19139;49.372;8.580;2023-03-17T10:22:56;5.77;;;1.50;;
32786;SDS011;19139;49.372;8.580;2023-03-17T10:25:26;3.53;;;1.43;;
32786;SDS011;19139;49.372;8.580;2023-03-17T10:28:00;1.73;;;1.20;;
32786;SDS011;19139;49.372;8.580;2023-03-17T10:30:34;3.73;;;2.00;;
32786;SDS011;19139;49.372;8.580;2023-03-17T10:33:01;2.40;;;1.50;;
32786;SDS011;19139;49.372;8.580;2023-03-17T10:35:32;6.40;;;2.37;;
32786;SDS011;19139;49.372;8.580;2023-03-17T10:38:07;2.23;;;1.53;;
32786;SDS011;19139;49.372;8.580;2023-03-17T10:40:53;2.47;;;1.40;;
32786;SDS011;19139;49.372;8.580;2023-03-17T10:43:36;3.03;;;1.57;;
32786;SDS011;19139;49.372;8.580;2023-03-17T10:46:18;2.50;;;1.50;;
32786;SDS011;19139;49.372;8.580;2023-03-17T10:48:51;3.80;;;1.83;;
32786;SDS011;19139;49.372;8.580;2023-03-17T10:51:29;2.63;;;1.57;;
32786;SDS011;19139;49.372;8.580;2023-03-17T10:53:59;3.33;;;1.87;;
32786;SDS011;19139;49.372;8.580;2023-03-17T10:56:32;4.30;;;1.73;;
32786;SDS011;19139;49.372;8.580;2023-03-17T10:59:12;3.90;;;1.80;;
32786;SDS011;19139;49.372;8.580;2023-03-17T11:01:46;3.53;;;1.67;;
32786;SDS011;19139;49.372;8.580;2023-03-17T11:04:28;2.67;;;1.73;;
32786;SDS011;19139;49.372;8.580;2023-03-17T11:09:49;2.80;;;2.00;;
32786;SDS011;19139;49.372;8.580;2023-03-17T11:12:25;3.83;;;1.70;;
32786;SDS011;19139;49.372;8.580;2023-03-17T11:14:56;3.90;;;2.40;;
32786;SDS011;19139;49.372;8.580;2023-03-17T11:17:37;3.30;;;2.03;;
32786;SDS011;19139;49.372;8.580;2023-03-17T11:20:23;3.20;;;2.20;;
32786;SDS011;19139;49.372;8.580;2023-03-17T11:22:55;3.17;;;1.93;;
32786;SDS011;19139;49.372;8.580;2023-03-17T11:25:30;2.40;;;1.80;;
32786;SDS011;19139;49.372;8.580;2023-03-17T11:28:09;2.67;;;1.90;;
32786;SDS011;19139;49.372;8.580;2023-03-17T11:33:30;7.37;;;2.50;;
32786;SDS011;19139;49.372;8.580;2023-03-17T11:36:06;5.80;;;2.53;;
32786;SDS011;19139;49.372;8.580;2023-03-17T11:38:52;5.27;;;2.50;;
32786;SDS011;19139;49.372;8.580;2023-03-17T11:56:05;4.33;;;2.47;;
32786;SDS011;19139;49.372;8.580;2023-03-17T11:58:59;8.23;;;2.33;;
32786;SDS011;19139;49.372;8.580;2023-03-17T12:04:18;4.70;;;2.20;;
32786;SDS011;19139;49.372;8.580;2023-03-17T12:07:10;5.03;;;2.00;;
32786;SDS011;19139;49.372;8.580;2023-03-17T12:09:48;4.03;;;1.97;;
32786;SDS011;19139;49.372;8.580;2023-03-17T12:12:23;3.43;;;1.93;;
32786;SDS011;19139;49.372;8.580;2023-03-17T12:14:56;2.83;;;2.10;;
32786;SDS011;19139;49.372;8.580;2023-03-17T12:17:27;5.67;;;2.00;;
32786;SDS011;19139;49.372;8.580;2023-03-17T12:22:46;4.27;;;1.90;;
32786;SDS011;19139;49.372;8.580;2023-03-17T12:25:39;3.80;;;2.30;;
32786;SDS011;19139;49.372;8.580;2023-03-17T12:28:26;2.43;;;2.00;;
32786;SDS011;19139;49.372;8.580;2023-03-17T12:31:13;4.63;;;2.33;;
32786;SDS011;19139;49.372;8.580;2023-03-17T12:36:42;4.23;;;2.30;;
32786;SDS011;19139;49.372;8.580;2023-03-17T12:39:13;5.07;;;2.33;;
32786;SDS011;19139;49.372;8.580;2023-03-17T12:55:13;3.73;;;2.10;;
32786;SDS011;19139;49.372;8.580;2023-03-17T12:57:43;4.07;;;2.20;;
32786;SDS011;19139;49.372;8.580;2023-03-17T13:00:22;4.47;;;1.60;;
32786;SDS011;19139;49.372;8.580;2023-03-17T13:05:52;2.17;;;1.90;;
32786;SDS011;19139;49.372;8.580;2023-03-17T13:08:28;4.23;;;2.47;;
32786;SDS011;19139;49.372;8.580;2023-03-17T13:16:30;2.43;;;1.80;;
32786;SDS011;19139;49.372;8.580;2023-03-17T13:24:33;6.07;;;1.73;;
32786;SDS011;19139;49.372;8.580;2023-03-17T13:27:01;4.80;;;1.97;;
32786;SDS011;19139;49.372;8.580;2023-03-17T13:32:12;3.33;;;1.70;;
32786;SDS011;19139;49.372;8.580;2023-03-17T13:34:47;3.37;;;2.40;;
32786;SDS011;19139;49.372;8.580;2023-03-17T13:37:21;3.43;;;1.83;;
32786;SDS011;19139;49.372;8.580;2023-03-17T13:45:35;2.30;;;1.67;;
32786;SDS011;19139;49.372;8.580;2023-03-17T13:50:58;1.63;;;1.43;;
32786;SDS011;19139;49.372;8.580;2023-03-17T13:53:28;5.27;;;2.20;;
32786;SDS011;19139;49.372;8.580;2023-03-17T14:01:28;3.53;;;1.90;;
32786;SDS011;19139;49.372;8.580;2023-03-17T14:04:01;2.27;;;1.70;;
32786;SDS011;19139;49.372;8.580;2023-03-17T14:06:35;1.50;;;1.33;;
32786;SDS011;19139;49.372;8.580;2023-03-17T14:09:07;6.13;;;2.60;;
32786;SDS011;19139;49.372;8.580;2023-03-17T14:11:54;2.43;;;1.60;;
32786;SDS011;19139;49.372;8.580;2023-03-17T14:14:40;3.33;;;1.73;;
32786;SDS011;19139;49.372;8.580;2023-03-17T14:17:46;1.73;;;1.40;;
32786;SDS011;19139;49.372;8.580;2023-03-17T14:20:36;2.77;;;1.53;;
32786;SDS011;19139;49.372;8.580;2023-03-17T14:23:03;2.20;;;1.63;;
32786;SDS011;19139;49.372;8.580;2023-03-17T14:25:32;2.47;;;1.70;;
32786;SDS011;19139;49.372;8.580;2023-03-17T14:28:02;2.47;;;1.77;;
32786;SDS011;19139;49.372;8.580;2023-03-17T14:30:36;3.97;;;2.00;;
32786;SDS011;19139;49.372;8.580;2023-03-17T14:33:11;11.47;;;2.90;;
32786;SDS011;19139;49.372;8.580;2023-03-17T14:35:49;7.70;;;2.50;;
32786;SDS011;19139;49.372;8.580;2023-03-17T14:40:45;5.00;;;2.03;;
32786;SDS011;19139;49.372;8.580;2023-03-17T14:43:13;5.27;;;2.20;;
32786;SDS011;19139;49.372;8.580;2023-03-17T14:45:46;4.47;;;2.20;;
32786;SDS011;19139;49.372;8.580;2023-03-17T14:48:21;3.80;;;2.20;;
32786;SDS011;19139;49.372;8.580;2023-03-17T14:50:52;3.20;;;2.00;;
32786;SDS011;19139;49.372;8.580;2023-03-17T14:53:34;3.67;;;2.07;;
32786;SDS011;19139;49.372;8.580;2023-03-17T14:56:08;6.87;;;2.37;;
32786;SDS011;19139;49.372;8.580;2023-03-17T14:58:36;4.00;;;1.80;;
32786;SDS011;19139;49.372;8.580;2023-03-17T15:01:14;3.27;;;1.93;;
32786;SDS011;19139;49.372;8.580;2023-03-17T15:03:53;2.83;;;1.70;;
32786;SDS011;19139;49.372;8.580;2023-03-17T15:06:23;3.40;;;2.07;;
32786;SDS011;19139;49.372;8.580;2023-03-17T15:08:58;3.83;;;1.40;;
32786;SDS011;19139;49.372;8.580;2023-03-17T15:11:36;3.30;;;2.00;;
32786;SDS011;19139;49.372;8.580;2023-03-17T15:14:17;2.97;;;1.80;;
32786;SDS011;19139;49.372;8.580;2023-03-17T15:16:49;6.73;;;1.97;;
32786;SDS011;19139;49.372;8.580;2023-03-17T15:19:22;3.03;;;1.60;;
32786;SDS011;19139;49.372;8.580;2023-03-17T15:22:28;4.57;;;1.97;;
32786;SDS011;19139;49.372;8.580;2023-03-17T15:28:17;3.27;;;1.70;;
32786;SDS011;19139;49.372;8.580;2023-03-17T15:30:45;6.27;;;2.30;;
32786;SDS011;19139;49.372;8.580;2023-03-17T15:35:53;4.00;;;1.90;;
32786;SDS011;19139;49.372;8.580;2023-03-17T15:38:22;2.53;;;2.10;;
32786;SDS011;19139;49.372;8.580;2023-03-17T15:40:49;4.43;;;1.70;;
32786;SDS011;19139;49.372;8.580;2023-03-17T15:43:16;3.80;;;2.10;;
32786;SDS011;19139;49.372;8.580;2023-03-17T15:45:47;3.57;;;2.13;;
32786;SDS011;19139;49.372;8.580;2023-03-17T15:48:20;2.07;;;1.70;;
32786;SDS011;19139;49.372;8.580;2023-03-17T15:50:53;2.90;;;1.67;;
32786;SDS011;19139;49.372;8.580;2023-03-17T15:53:21;3.50;;;2.23;;
32786;SDS011;19139;49.372;8.580;2023-03-17T15:55:48;2.03;;;1.57;;
32786;SDS011;19139;49.372;8.580;2023-03-17T15:58:15;3.63;;;2.07;;
32786;SDS011;19139;49.372;8.580;2023-03-17T16:00:41;3.73;;;1.93;;
32786;SDS011;19139;49.372;8.580;2023-03-17T16:03:17;2.70;;;1.60;;
32786;SDS011;19139;49.372;8.580;2023-03-17T16:05:48;2.30;;;2.00;;
32786;SDS011;19139;49.372;8.580;2023-03-17T16:08:15;3.97;;;2.10;;
32786;SDS011;19139;49.372;8.580;2023-03-17T16:10:43;2.83;;;2.30;;
32786;SDS011;19139;49.372;8.580;2023-03-17T16:13:11;2.63;;;1.87;;
32786;SDS011;19139;49.372;8.580;2023-03-17T16:15:39;4.80;;;2.10;;
32786;SDS011;19139;49.372;8.580;2023-03-17T16:18:14;2.57;;;1.90;;
32786;SDS011;19139;49.372;8.580;2023-03-17T16:20:45;2.90;;;1.83;;
32786;SDS011;19139;49.372;8.580;2023-03-17T16:23:14;3.03;;;1.80;;
32786;SDS011;19139;49.372;8.580;2023-03-17T16:25:43;2.33;;;2.03;;
32786;SDS011;19139;49.372;8.580;2023-03-17T16:28:24;2.10;;;1.90;;
32786;SDS011;19139;49.372;8.580;2023-03-17T16:30:53;4.00;;;2.03;;
32786;SDS011;19139;49.372;8.580;2023-03-17T16:36:00;2.70;;;2.10;;
32786;SDS011;19139;49.372;8.580;2023-03-17T16:38:28;5.10;;;2.23;;
32786;SDS011;19139;49.372;8.580;2023-03-17T16:41:00;2.83;;;2.00;;